Boynton Beach, FL

4:37 AM EDT on September 23, 2014 (GMT -0400)
APRSWXNET West Palm Beach FL US | Change Station
CLOSE
Current Station
Personal Weather Station
Location: Boynton Beach, FL
Elevation: 32 ft
Nearby Weather Stations

Elev 32 ft 26.53 °N, 80.07 °W | Updated 37 minutes ago

Clear
Clear
78.0 °F
Feels Like 80 °F
N
2.0
Wind Variable Wind from NE
Gusts 7.0 mph

Today
High -- | Low -- °F
--% Chance of Precip.
Yesterday
High -- | Low -- °F
Precip. -- in
7:09 AM 7:15 PM
Waning Crescent, 1% visible
Pressure 29.95 in
Visibility 10.0 miles
Clouds Clear
Heat Index 80 °F
Dew Point 74.0 °F
Humidity 88%
Rainfall 0.00 in
Snow Depth Not available.
UV 0 out of 12
Pollen 2.50 out of 12
Air Quality Not available.
Flu Activity Not available.
METAR KPBI 230753Z 08006KT 10SM CLR 25/22 A2995 RMK AO2 SLP142 T02500222 PNO

More Conditions Fewer Conditions

Pressure 29.95 in
Visibility 10.0 miles
Clouds Clear
Heat Index 80 °F
Dew Point 74.0 °F
Humidity 88%
Rainfall 0.00 in
Snow Depth Not available.
UV 0 out of 12
Pollen 2.50 out of 12
Air Quality Not available.
Flu Activity Not available.
METAR KPBI 230753Z 08006KT 10SM CLR 25/22 A2995 RMK AO2 SLP142 T02500222 PNO

More Conditions Fewer Conditions

10-Day Weather Forecast

Almanac

Astronomy

Sep. 23, 2014 Rise Set
Actual Time 7:09 AM EDT 7:15 PM EDT
Civil Twilight 6:46 AM EDT 7:38 PM EDT
Nautical Twilight 6:19 AM EDT 8:05 PM EDT
Astronomical Twilight 5:52 AM EDT 8:32 PM EDT
Moon 6:33 AM EDT 6:54 PM EDT
Length of Visible Light 12h 52m
Length of Day
12h 06m
Tomorrow will be 1m 33s shorter.
Waning Crescent, 1% of the Moon is Illuminated
Today
Waning Crescent
Sep 24
New
Oct 1
First Quarter
Oct 8
Full
Oct 15
Last Quarter

Today's Extremes

State Highs State Lows

Community

WunderPhotos

Upload Photos

1,755,643 photos uploaded!

Nearby

Air Quality

  Air Quality AQ Index Pollutant
Yesterday Good
PM2.5
Yesterday Good
OZONE
Tuesday Good
OZONE
Tuesday Good
PM2.5

Snow Depth

Station Depth Elevation
No new snow has been reported.

Earthquake Activity

City Distance Mag. Time & Date
No recent earthquake activity has been reported nearby.
Minimum magnitude displayed is 2.5.

Coastal Water Temperatures

Place Temperature
Lake Worth, FL 84.9 °F
Virginia Key, FL 84.9 °F

Nearby Weather Stations